createdAt,value
2022-11-27T00:01:53.871Z,102104.41
2022-11-27T00:04:22.518Z,102107.00
2022-11-27T00:06:51.271Z,102105.25
2022-11-27T00:09:20.033Z,102111.41
2022-11-27T00:11:48.978Z,102109.72
2022-11-27T00:14:19.731Z,102101.78
2022-11-27T00:16:48.567Z,102102.63
2022-11-27T00:19:17.329Z,102100.78
2022-11-27T00:21:45.942Z,102105.00
2022-11-27T00:24:14.559Z,102110.19
2022-11-27T00:26:43.145Z,102112.81
2022-11-27T00:29:11.676Z,102111.03
2022-11-27T00:31:41.776Z,102113.66
2022-11-27T00:34:11.609Z,102111.06
2022-11-27T00:36:43.935Z,102110.19
2022-11-27T00:39:15.430Z,102105.88
2022-11-27T00:41:43.976Z,102109.47
2022-11-27T00:44:14.520Z,102104.28
2022-11-27T00:46:44.511Z,102110.44
2022-11-27T00:49:15.406Z,102106.06
2022-11-27T00:51:44.107Z,102099.94
2022-11-27T00:54:12.716Z,102107.81
2022-11-27T00:56:41.894Z,102104.28
2022-11-27T00:59:10.992Z,102112.34
2022-11-27T01:01:42.140Z,102083.13
2022-11-27T01:04:16.256Z,102111.69
2022-11-27T01:06:46.210Z,102112.69
2022-11-27T01:09:16.007Z,102113.66
2022-11-27T01:11:45.012Z,102113.81
2022-11-27T01:14:16.547Z,102117.34
2022-11-27T01:16:45.301Z,102113.09
2022-11-27T01:19:16.234Z,102114.03
2022-11-27T01:21:45.016Z,102119.31
2022-11-27T01:24:14.891Z,102116.72
2022-11-27T01:26:44.055Z,102109.75
2022-11-27T01:29:13.141Z,102104.53
2022-11-27T01:31:42.220Z,102100.13
2022-11-27T01:34:17.082Z,102093.97
2022-11-27T01:36:46.290Z,102103.56
2022-11-27T01:39:18.063Z,102089.47
2022-11-27T01:41:47.932Z,102084.19
2022-11-27T01:44:52.424Z,102084.16
2022-11-27T01:47:39.143Z,102075.28
2022-11-27T01:50:20.060Z,102011.31
2022-11-27T01:52:53.199Z,102074.25
2022-11-27T01:55:28.986Z,102075.91
2022-11-27T01:58:01.312Z,102070.53
2022-11-27T02:00:30.473Z,102083.63
2022-11-27T02:02:59.339Z,102071.38
2022-11-27T02:05:31.047Z,102019.06
2022-11-27T02:08:04.186Z,102057.34
2022-11-27T02:10:48.828Z,102049.47
2022-11-27T02:13:24.557Z,102046.75
2022-11-27T02:15:59.491Z,102049.34
2022-11-27T02:18:37.610Z,102051.03
2022-11-27T02:21:14.981Z,102058.88
2022-11-27T02:24:14.454Z,102063.16
2022-11-27T02:27:20.999Z,102050.88
2022-11-27T02:29:55.443Z,102047.25
2022-11-27T02:32:30.601Z,102046.19
2022-11-27T02:35:08.630Z,102011.41
2022-11-27T02:37:43.233Z,102032.53
2022-11-27T02:40:14.932Z,102035.78
2022-11-27T02:42:47.198Z,102040.81
2022-11-27T02:45:22.687Z,102029.28
2022-11-27T02:47:52.692Z,102032.56
2022-11-27T02:50:24.711Z,102022.72
2022-11-27T02:53:00.024Z,102027.66
2022-11-27T02:55:33.968Z,102016.72
2022-11-27T02:58:16.796Z,102026.03
2022-11-27T03:00:48.949Z,102020.59
2022-11-27T03:03:22.528Z,102016.78
2022-11-27T03:05:55.871Z,102015.66
2022-11-27T03:08:30.908Z,102015.41
2022-11-27T03:11:04.164Z,102022.22
2022-11-27T03:13:38.488Z,102023.75
2022-11-27T03:16:18.288Z,102012.88
2022-11-27T03:18:57.662Z,102030.63
2022-11-27T03:21:31.470Z,102030.66
2022-11-27T03:24:00.525Z,102030.84
2022-11-27T03:26:29.418Z,102039.16
2022-11-27T03:29:01.288Z,102040.34
2022-11-27T03:31:32.411Z,102042.34
2022-11-27T03:34:01.105Z,102045.09
2022-11-27T03:36:29.730Z,102047.84
2022-11-27T03:38:58.594Z,102051.50
2022-11-27T03:41:35.884Z,102043.69
2022-11-27T03:44:12.417Z,102052.53
2022-11-27T03:46:53.787Z,102049.06
2022-11-27T03:49:33.719Z,102041.31
2022-11-27T03:52:13.729Z,102056.19
2022-11-27T03:54:51.446Z,102049.19
2022-11-27T03:57:24.292Z,102051.81
2022-11-27T03:59:58.116Z,102046.59
2022-11-27T04:02:41.460Z,102050.13
2022-11-27T04:05:10.937Z,102051.84
2022-11-27T04:07:39.624Z,102048.38
2022-11-27T04:10:10.242Z,102046.69
2022-11-27T04:12:39.407Z,102057.25
2022-11-27T04:15:09.064Z,102050.31
2022-11-27T04:17:39.244Z,102046.00
2022-11-27T04:20:09.386Z,102046.91
2022-11-27T04:22:38.020Z,102046.91
2022-11-27T04:25:07.385Z,102045.16
2022-11-27T04:27:36.069Z,102043.38
2022-11-27T04:30:05.129Z,102039.03
2022-11-27T04:32:33.755Z,102044.31
2022-11-27T04:35:03.732Z,102034.66
2022-11-27T04:37:32.321Z,102031.22
2022-11-27T04:40:00.942Z,102035.59
2022-11-27T04:42:29.829Z,102035.59
2022-11-27T04:44:58.440Z,102032.03
2022-11-27T04:47:27.148Z,102034.63
2022-11-27T04:49:55.750Z,102042.50
2022-11-27T04:52:25.845Z,102043.38
2022-11-27T04:54:59.867Z,102051.22
2022-11-27T04:57:29.188Z,101980.28
2022-11-27T04:59:57.805Z,102043.28
2022-11-27T05:02:26.509Z,102048.44
2022-11-27T05:04:55.366Z,102047.50
2022-11-27T05:07:25.730Z,102049.19
2022-11-27T05:09:54.442Z,102045.66
2022-11-27T05:12:23.052Z,102038.63
2022-11-27T05:14:51.715Z,102042.09
2022-11-27T05:17:20.361Z,102046.44
2022-11-27T05:19:48.976Z,102050.75
2022-11-27T05:22:17.552Z,102048.03
2022-11-27T05:24:47.542Z,102051.50
2022-11-27T05:27:16.158Z,102055.00
2022-11-27T05:29:44.758Z,102058.53
2022-11-27T05:32:13.425Z,102066.53
2022-11-27T05:34:42.252Z,102062.19
2022-11-27T05:37:17.876Z,102070.06
2022-11-27T05:39:49.432Z,102065.75
2022-11-27T05:42:18.077Z,102066.63
2022-11-27T05:44:46.659Z,102076.28
2022-11-27T05:47:15.312Z,102081.63
2022-11-27T05:49:43.929Z,102076.47
2022-11-27T05:52:12.925Z,102073.06
2022-11-27T05:54:42.031Z,102070.53
2022-11-27T05:57:12.430Z,102066.94
2022-11-27T05:59:41.076Z,102055.50
2022-11-27T06:02:10.141Z,102057.09
2022-11-27T06:04:41.432Z,102050.91
2022-11-27T06:07:10.440Z,102046.56
2022-11-27T06:09:39.629Z,102051.78
2022-11-27T06:12:08.890Z,102050.91
2022-11-27T06:14:39.184Z,102046.56
2022-11-27T06:17:08.134Z,102043.88
2022-11-27T06:19:36.750Z,102045.47
2022-11-27T06:22:05.402Z,102039.22
2022-11-27T06:24:34.000Z,102035.56
2022-11-27T06:27:02.599Z,102031.97
2022-11-27T06:29:31.194Z,102029.19
2022-11-27T06:32:01.312Z,102022.84
2022-11-27T06:34:30.388Z,102026.94
2022-11-27T06:36:58.988Z,102023.13
2022-11-27T06:39:27.635Z,102015.78
2022-11-27T06:41:56.301Z,102012.00
2022-11-27T06:44:25.040Z,102016.06
2022-11-27T06:46:54.376Z,102015.00
2022-11-27T06:49:24.399Z,102012.16
2022-11-27T06:51:53.027Z,102013.84
2022-11-27T06:54:21.599Z,102008.50
2022-11-27T06:56:51.649Z,102002.38
2022-11-27T06:59:20.708Z,101994.50
2022-11-27T07:01:49.682Z,101990.94
2022-11-27T07:04:18.541Z,101990.06
2022-11-27T07:06:48.541Z,101986.53
2022-11-27T07:09:17.726Z,101981.19
2022-11-27T07:11:46.264Z,101983.72
2022-11-27T07:14:14.914Z,101998.50
2022-11-27T07:16:43.592Z,101993.22
2022-11-27T07:19:12.341Z,101991.50
2022-11-27T07:21:41.690Z,101985.38
2022-11-27T07:24:11.755Z,101986.22
2022-11-27T07:26:40.453Z,101984.47
2022-11-27T07:29:09.095Z,101987.09
2022-11-27T07:31:37.827Z,101990.66
2022-11-27T07:34:14.110Z,101984.56
2022-11-27T07:36:44.979Z,101995.19
2022-11-27T07:39:14.997Z,101986.56
2022-11-27T07:41:43.648Z,101991.00
2022-11-27T07:44:12.266Z,101988.44
2022-11-27T07:46:40.961Z,101985.81
2022-11-27T07:49:09.535Z,101991.06
2022-11-27T07:51:38.149Z,101992.84
2022-11-27T07:54:06.810Z,101986.81
2022-11-27T07:56:36.992Z,101996.53
2022-11-27T07:59:05.892Z,102000.91
2022-11-27T08:01:34.790Z,102001.75
2022-11-27T08:04:03.563Z,101996.63
2022-11-27T08:06:32.203Z,101991.56
2022-11-27T08:09:00.901Z,101983.91
2022-11-27T08:11:32.944Z,101979.75
2022-11-27T08:14:04.857Z,101978.91
2022-11-27T08:16:34.783Z,101979.88
2022-11-27T08:19:03.490Z,101975.81
2022-11-27T08:21:32.303Z,101979.47
2022-11-27T08:24:00.946Z,101978.84
2022-11-27T08:26:29.754Z,101975.41
2022-11-27T08:28:59.427Z,101978.09
2022-11-27T08:31:29.524Z,101975.47
2022-11-27T08:33:58.388Z,101971.13
2022-11-27T08:36:27.693Z,101977.34
2022-11-27T08:38:56.962Z,101974.72
2022-11-27T08:41:25.597Z,101975.63
2022-11-27T08:43:54.293Z,101975.78
2022-11-27T08:46:23.054Z,101976.75
2022-11-27T08:48:53.439Z,101976.81
2022-11-27T08:51:22.188Z,101976.06
2022-11-27T08:53:50.803Z,101984.13
2022-11-27T08:56:22.040Z,101995.66
2022-11-27T08:58:51.094Z,101991.44
2022-11-27T09:01:21.719Z,101989.06
2022-11-27T09:03:53.012Z,101981.31
2022-11-27T09:06:24.458Z,101977.06
2022-11-27T09:08:59.185Z,101965.72
2022-11-27T09:11:29.467Z,101966.75
2022-11-27T09:13:58.153Z,101968.59
2022-11-27T09:16:28.120Z,101964.41
2022-11-27T09:18:59.073Z,101967.09
2022-11-27T09:21:30.306Z,101975.16
2022-11-27T09:24:00.837Z,101966.53
2022-11-27T09:26:30.327Z,101939.00
2022-11-27T09:29:00.571Z,101941.03
2022-11-27T09:31:29.610Z,101971.25
2022-11-27T09:34:00.166Z,101969.63
2022-11-27T09:36:29.136Z,101968.00
2022-11-27T09:38:59.532Z,101975.19
2022-11-27T09:41:41.868Z,101966.47
2022-11-27T09:44:34.443Z,101964.84
2022-11-27T09:47:11.604Z,101957.91
2022-11-27T09:49:46.366Z,101961.47
2022-11-27T09:52:22.626Z,101953.53
2022-11-27T09:54:58.794Z,101957.22
2022-11-27T09:57:32.402Z,101953.00
2022-11-27T10:00:05.644Z,101948.63
2022-11-27T10:02:36.152Z,101948.78
2022-11-27T10:05:16.598Z,101901.91
2022-11-27T10:08:07.823Z,101944.56
2022-11-27T10:10:42.413Z,101934.97
2022-11-27T10:13:24.389Z,101915.75
2022-11-27T10:15:58.086Z,101918.50
2022-11-27T10:18:35.817Z,101911.50
2022-11-27T10:21:14.409Z,101903.69
2022-11-27T10:23:50.421Z,101906.44
2022-11-27T10:26:30.528Z,101896.94
2022-11-27T10:29:04.643Z,101902.22
2022-11-27T10:31:38.364Z,101900.59
2022-11-27T10:34:20.534Z,101894.50
2022-11-27T10:36:53.026Z,101895.38
2022-11-27T10:39:31.918Z,101887.59
2022-11-27T10:42:07.453Z,101892.03
2022-11-27T10:44:40.930Z,101892.97
2022-11-27T10:47:13.235Z,101894.75
2022-11-27T10:49:43.403Z,101885.97
2022-11-27T10:52:17.030Z,101887.78
2022-11-27T10:54:51.139Z,101886.97
2022-11-27T10:57:41.660Z,101874.81
2022-11-27T11:00:15.187Z,101882.75
2022-11-27T11:02:44.500Z,101886.28
2022-11-27T11:08:20.338Z,101870.63
2022-11-27T11:10:55.195Z,101839.66
2022-11-27T11:13:27.770Z,101861.84
2022-11-27T11:16:00.976Z,101859.31
2022-11-27T11:18:32.187Z,101852.31
2022-11-27T11:21:05.565Z,101847.09
2022-11-27T11:23:38.626Z,101848.06
2022-11-27T11:26:16.407Z,101855.06
2022-11-27T11:28:51.505Z,101856.84
2022-11-27T11:31:23.638Z,101849.81
2022-11-27T11:33:57.487Z,101853.38
2022-11-27T11:36:26.817Z,101856.91
2022-11-27T11:38:57.230Z,101848.19
2022-11-27T11:41:36.775Z,101851.72
2022-11-27T11:44:05.798Z,101844.75
2022-11-27T11:46:36.886Z,101836.91
2022-11-27T11:49:10.081Z,101840.44
2022-11-27T11:52:02.793Z,101841.31
2022-11-27T11:54:44.311Z,101831.69
2022-11-27T11:57:41.294Z,101821.22
2022-11-27T12:00:13.972Z,101816.81
2022-11-27T12:02:58.346Z,101804.56
2022-11-27T12:05:38.366Z,101809.84
2022-11-27T12:08:36.868Z,101803.78
2022-11-27T12:11:15.288Z,101802.97
2022-11-27T12:14:11.542Z,101807.38
2022-11-27T12:16:51.915Z,101815.34
2022-11-27T12:19:39.474Z,101816.25
2022-11-27T12:22:19.873Z,101806.66
2022-11-27T12:25:04.072Z,101759.06
2022-11-27T12:27:57.875Z,101790.22
2022-11-27T12:30:35.756Z,101797.47
2022-11-27T12:33:30.956Z,101791.63
2022-11-27T12:36:07.886Z,101783.88
2022-11-27T12:39:10.559Z,101790.13
2022-11-27T12:42:01.324Z,101792.84
2022-11-27T12:44:47.297Z,101791.09
2022-11-27T12:47:23.753Z,101771.66
2022-11-27T12:49:57.438Z,101776.88
2022-11-27T12:52:30.622Z,101775.06
2022-11-27T12:55:12.260Z,101777.59
2022-11-27T12:57:45.603Z,101767.81
2022-11-27T13:00:19.874Z,101768.63
2022-11-27T13:02:58.414Z,101769.44
2022-11-27T13:05:30.485Z,101761.53
2022-11-27T13:08:04.989Z,101768.50
2022-11-27T13:10:39.378Z,101753.53
2022-11-27T13:13:14.108Z,101749.09
2022-11-27T13:15:49.905Z,101756.03
2022-11-27T13:18:22.719Z,101744.63
2022-11-27T13:20:54.233Z,101726.19
2022-11-27T13:23:23.405Z,101717.47
2022-11-27T13:25:57.115Z,101712.25
2022-11-27T13:28:32.789Z,101707.06
2022-11-27T13:31:04.308Z,101700.09
2022-11-27T13:33:42.346Z,101706.31
2022-11-27T13:36:22.919Z,101694.03
2022-11-27T13:38:58.718Z,101695.81
2022-11-27T13:41:36.057Z,101701.03
2022-11-27T13:44:11.465Z,101694.78
2022-11-27T13:46:49.476Z,101698.25
2022-11-27T13:49:27.372Z,101698.13
2022-11-27T13:52:07.814Z,101687.50
2022-11-27T13:54:37.107Z,101689.16
2022-11-27T13:57:18.771Z,101687.31
2022-11-27T14:00:00.838Z,101695.97
2022-11-27T14:02:43.359Z,101694.97
2022-11-27T14:05:12.884Z,101684.34
2022-11-27T14:07:45.320Z,101688.63
2022-11-27T14:10:18.691Z,101693.81
2022-11-27T14:12:56.702Z,101691.94
2022-11-27T14:15:27.733Z,101689.28
2022-11-27T14:18:09.496Z,101688.31
2022-11-27T14:20:50.851Z,101693.56
2022-11-27T14:23:31.841Z,101685.56
2022-11-27T14:26:14.637Z,101679.34
2022-11-27T14:28:47.758Z,101681.13
2022-11-27T14:31:33.596Z,101674.84
2022-11-27T14:34:24.675Z,101670.34
2022-11-27T14:36:56.616Z,101671.97
2022-11-27T14:39:31.371Z,101666.59
2022-11-27T14:42:02.978Z,101668.31
2022-11-27T14:44:34.525Z,101660.34
2022-11-27T14:47:09.108Z,101654.94
2022-11-27T14:49:43.656Z,101660.13
2022-11-27T14:52:19.403Z,101627.38
2022-11-27T14:54:52.466Z,101651.19
2022-11-27T14:57:27.601Z,101652.00
2022-11-27T15:00:17.027Z,101644.94
2022-11-27T15:02:48.849Z,101641.41
2022-11-27T15:05:32.079Z,101641.38
2022-11-27T15:08:03.564Z,101628.16
2022-11-27T15:10:42.084Z,101628.03
2022-11-27T15:13:29.243Z,101596.19
2022-11-27T15:16:06.204Z,101620.88
2022-11-27T15:18:40.702Z,101618.09
2022-11-27T15:21:20.296Z,101620.63
2022-11-27T15:23:52.567Z,101631.84
2022-11-27T15:26:35.136Z,101630.03
2022-11-27T15:29:05.030Z,101628.19
2022-11-27T15:31:37.353Z,101627.19
2022-11-27T15:34:25.040Z,101593.50
2022-11-27T15:36:58.501Z,101619.94
2022-11-27T15:39:32.753Z,101615.53
2022-11-27T15:42:03.753Z,101623.31
2022-11-27T15:44:34.332Z,101626.66
2022-11-27T15:47:05.364Z,101616.00
2022-11-27T15:49:35.293Z,101619.34
2022-11-27T15:52:05.611Z,101624.47
2022-11-27T15:54:34.472Z,101633.09
2022-11-27T15:57:03.049Z,101634.75
2022-11-27T15:59:32.238Z,101618.94
2022-11-27T16:02:01.194Z,101618.03
2022-11-27T16:04:30.877Z,101614.44
2022-11-27T16:06:59.726Z,101618.72
2022-11-27T16:09:30.009Z,101614.25
2022-11-27T16:11:59.278Z,101600.19
2022-11-27T16:14:27.978Z,101601.88
2022-11-27T16:16:56.936Z,101600.91
2022-11-27T16:19:26.007Z,101599.22
2022-11-27T16:21:54.823Z,101600.06
2022-11-27T16:24:24.268Z,101590.50
2022-11-27T16:26:54.516Z,101594.88
2022-11-27T16:29:24.927Z,101591.41
2022-11-27T16:31:54.194Z,101589.63
2022-11-27T16:34:24.466Z,101586.09
2022-11-27T16:36:53.514Z,101583.47
2022-11-27T16:39:22.715Z,101582.66
2022-11-27T16:41:53.160Z,101582.50
2022-11-27T16:44:22.881Z,101585.03
2022-11-27T16:46:54.020Z,101580.63
2022-11-27T16:49:22.914Z,101570.19
2022-11-27T16:51:52.113Z,101563.94
2022-11-27T16:54:21.820Z,101570.03
2022-11-27T16:56:50.589Z,101562.19
2022-11-27T16:59:21.166Z,101557.78
2022-11-27T17:01:51.642Z,101562.94
2022-11-27T17:04:21.761Z,101562.88
2022-11-27T17:06:51.337Z,101561.84
2022-11-27T17:09:20.489Z,101558.25
2022-11-27T17:11:49.630Z,101560.75
2022-11-27T17:14:21.520Z,101563.34
2022-11-27T17:16:51.094Z,101564.19
2022-11-27T17:19:19.927Z,101560.59
2022-11-27T17:21:49.507Z,101554.47
2022-11-27T17:24:21.191Z,101553.59
2022-11-27T17:26:55.811Z,101560.44
2022-11-27T17:29:33.955Z,101557.56
2022-11-27T17:32:07.330Z,101554.72
2022-11-27T17:34:36.756Z,101546.84
2022-11-27T17:37:05.806Z,101543.28
2022-11-27T17:39:35.009Z,101543.25
2022-11-27T17:42:05.190Z,101542.44
2022-11-27T17:44:38.952Z,101537.13
2022-11-27T17:47:08.180Z,101537.13
2022-11-27T17:49:36.941Z,101534.56
2022-11-27T17:52:06.682Z,101539.78
2022-11-27T17:54:37.220Z,101534.41
2022-11-27T17:57:07.394Z,101529.91
2022-11-27T17:59:38.557Z,101530.75
2022-11-27T18:02:09.420Z,101520.28
2022-11-27T18:04:39.592Z,101517.59
2022-11-27T18:07:09.184Z,101521.94
2022-11-27T18:09:38.252Z,101513.09
2022-11-27T18:12:08.538Z,101511.47
2022-11-27T18:14:39.720Z,101508.78
2022-11-27T18:17:08.716Z,101505.16
2022-11-27T18:19:37.361Z,101505.94
2022-11-27T18:22:08.556Z,101494.53
2022-11-27T18:24:37.481Z,101497.06
2022-11-27T18:27:09.617Z,101501.31
2022-11-27T18:29:42.669Z,101495.09
2022-11-27T18:32:12.607Z,101494.16
2022-11-27T18:34:42.622Z,101485.41
2022-11-27T18:37:12.649Z,101487.03
2022-11-27T18:39:44.619Z,101480.00
2022-11-27T18:42:14.148Z,101475.69
2022-11-27T18:44:45.299Z,101468.75
2022-11-27T18:47:15.173Z,101467.13
2022-11-27T18:49:45.973Z,101465.31
2022-11-27T18:52:15.014Z,101459.16
2022-11-27T18:54:45.007Z,101460.00
2022-11-27T18:57:14.038Z,101455.56
2022-11-27T18:59:45.995Z,101453.75
2022-11-27T19:02:15.092Z,101451.94
2022-11-27T19:04:44.902Z,101452.81
2022-11-27T19:07:14.047Z,101454.50
2022-11-27T19:09:43.212Z,101450.03
2022-11-27T19:12:12.862Z,101451.63
2022-11-27T19:14:41.917Z,101447.25
2022-11-27T19:17:12.027Z,101445.50
2022-11-27T19:19:56.454Z,101446.34
2022-11-27T19:22:26.564Z,101441.06
2022-11-27T19:24:58.604Z,101441.81
2022-11-27T19:27:27.262Z,101442.75
2022-11-27T19:29:55.861Z,101443.59
2022-11-27T19:32:26.071Z,101442.66
2022-11-27T19:34:54.779Z,101450.41
2022-11-27T19:37:34.051Z,101447.75
2022-11-27T19:40:05.614Z,101447.63
2022-11-27T19:42:34.311Z,101449.38
2022-11-27T19:45:02.938Z,101450.44
2022-11-27T19:47:33.011Z,101444.16
2022-11-27T19:50:01.960Z,101440.59
2022-11-27T19:52:30.710Z,101447.50
2022-11-27T19:54:59.505Z,101450.13
2022-11-27T19:57:28.324Z,101448.41
2022-11-27T19:59:57.233Z,101443.97
2022-11-27T20:02:25.990Z,101433.47
2022-11-27T20:04:56.775Z,101432.63
2022-11-27T20:07:28.409Z,101437.88
2022-11-27T20:09:57.110Z,101433.63
2022-11-27T20:12:25.708Z,101442.19
2022-11-27T20:14:54.861Z,101433.63
2022-11-27T20:17:23.462Z,101435.22
2022-11-27T20:19:52.357Z,101426.28
2022-11-27T20:22:22.522Z,101429.75
2022-11-27T20:25:11.552Z,101428.00
2022-11-27T20:27:40.422Z,101419.34
2022-11-27T20:30:10.122Z,101411.44
2022-11-27T20:32:38.916Z,101403.63
2022-11-27T20:35:08.130Z,101408.69
2022-11-27T20:37:38.205Z,101413.03
2022-11-27T20:40:08.081Z,101406.88
2022-11-27T20:42:36.697Z,101404.13
2022-11-27T20:45:05.870Z,101402.44
2022-11-27T20:47:35.416Z,101395.53
2022-11-27T20:50:04.551Z,101392.97
2022-11-27T20:52:33.568Z,101388.59
2022-11-27T20:55:03.522Z,101387.75
2022-11-27T20:57:32.165Z,101390.38
2022-11-27T21:00:00.766Z,101390.56
2022-11-27T21:02:29.478Z,101388.09
2022-11-27T21:04:59.898Z,101389.06
2022-11-27T21:07:28.861Z,101389.13
2022-11-27T21:09:58.089Z,101389.16
2022-11-27T21:12:28.226Z,101392.75
2022-11-27T21:14:57.240Z,101393.84
2022-11-27T21:17:25.803Z,101393.06
2022-11-27T21:19:54.829Z,101389.75
2022-11-27T21:22:24.306Z,101386.41
2022-11-27T21:24:53.280Z,101384.88
2022-11-27T21:27:21.899Z,101384.06
2022-11-27T21:29:51.882Z,101384.19
2022-11-27T21:32:22.663Z,101374.63
2022-11-27T21:34:51.545Z,101376.41
2022-11-27T21:37:20.178Z,101381.66
2022-11-27T21:39:48.911Z,101369.47
2022-11-27T21:42:17.885Z,101365.94
2022-11-27T21:44:46.946Z,101362.44
2022-11-27T21:47:17.351Z,101363.28
2022-11-27T21:49:46.110Z,101360.53
2022-11-27T21:52:14.921Z,101363.03
2022-11-27T21:54:43.916Z,101360.28
2022-11-27T21:57:13.040Z,101358.50
2022-11-27T21:59:43.328Z,101356.78
2022-11-27T22:02:13.185Z,101355.06
2022-11-27T22:04:43.921Z,101352.50
2022-11-27T22:07:12.917Z,101339.38
2022-11-27T22:09:41.565Z,101333.38
2022-11-27T22:12:10.238Z,101328.25
2022-11-27T22:14:38.927Z,101321.34
2022-11-27T22:17:07.694Z,101317.03
2022-11-27T22:19:40.291Z,101312.69
2022-11-27T22:22:10.337Z,101314.47
2022-11-27T22:24:39.268Z,101311.88
2022-11-27T22:27:08.437Z,101311.06
2022-11-27T22:29:37.137Z,101312.84
2022-11-27T22:32:05.993Z,101307.66
2022-11-27T22:34:35.040Z,101307.66
2022-11-27T22:37:05.895Z,101313.72
2022-11-27T22:39:36.162Z,101315.38
2022-11-27T22:42:04.966Z,101320.53
2022-11-27T22:44:33.881Z,101313.53
2022-11-27T22:47:02.592Z,101309.09
2022-11-27T22:49:31.177Z,101306.41
2022-11-27T22:51:59.790Z,101307.22
2022-11-27T22:54:29.913Z,101321.97
2022-11-27T22:57:00.724Z,101310.63
2022-11-27T22:59:32.834Z,101311.47
2022-11-27T23:02:02.526Z,101314.84
2022-11-27T23:04:31.655Z,101310.41
2022-11-27T23:07:00.581Z,101307.72
2022-11-27T23:09:30.202Z,101303.25
2022-11-27T23:12:00.323Z,101293.56
2022-11-27T23:14:29.062Z,101286.53
2022-11-27T23:16:57.640Z,101291.75
2022-11-27T23:19:26.374Z,101293.41
2022-11-27T23:21:54.971Z,101286.31
2022-11-27T23:24:23.652Z,101281.88
2022-11-27T23:26:52.266Z,101284.38
2022-11-27T23:29:22.260Z,101289.41
2022-11-27T23:31:51.084Z,101281.44
2022-11-27T23:34:19.758Z,101275.25
2022-11-27T23:36:48.606Z,101281.34
2022-11-27T23:39:17.216Z,101275.06
2022-11-27T23:41:46.400Z,101280.28
2022-11-27T23:44:14.984Z,101272.41
2022-11-27T23:46:45.091Z,101269.81
2022-11-27T23:49:13.767Z,101265.47
2022-11-27T23:51:42.509Z,101259.31
2022-11-27T23:54:13.376Z,101272.31
2022-11-27T23:56:43.092Z,101267.09
2022-11-27T23:59:11.837Z,101267.06
